createdAt,value
2023-05-14T00:01:03.238Z,72.80
2023-05-14T00:03:30.144Z,72.80
2023-05-14T00:05:56.909Z,73.00
2023-05-14T00:08:23.581Z,73.10
2023-05-14T00:10:50.301Z,73.10
2023-05-14T00:13:16.979Z,73.00
2023-05-14T00:48:31.131Z,73.40
2023-05-14T00:50:57.997Z,73.40
2023-05-14T00:53:24.863Z,73.40
2023-05-14T00:55:52.032Z,73.40
2023-05-14T00:58:20.499Z,73.70
2023-05-14T01:00:47.253Z,73.80
2023-05-14T01:03:14.000Z,73.80
2023-05-14T01:05:52.492Z,73.70
2023-05-14T01:08:49.843Z,73.70
2023-05-14T01:11:29.125Z,73.50
2023-05-14T01:14:26.303Z,73.80
2023-05-14T01:16:57.695Z,73.90
2023-05-14T01:19:39.323Z,73.80
2023-05-14T01:22:06.442Z,73.50
2023-05-14T01:24:33.516Z,73.80
2023-05-14T01:27:23.638Z,73.80
2023-05-14T01:29:58.947Z,73.90
2023-05-14T01:32:26.702Z,74.20
2023-05-14T01:34:55.869Z,74.20
2023-05-14T01:37:23.250Z,74.20
2023-05-14T01:39:51.832Z,74.20
2023-05-14T01:42:18.545Z,74.30
2023-05-14T01:44:45.318Z,74.40
2023-05-14T01:47:11.973Z,74.60
2023-05-14T01:49:38.611Z,74.80
2023-05-14T01:52:05.596Z,74.80
2023-05-14T01:54:32.222Z,74.90
2023-05-14T01:56:58.848Z,75.10
2023-05-14T01:59:25.586Z,75.20
2023-05-14T02:01:52.257Z,74.90
2023-05-14T02:04:20.739Z,75.00
2023-05-14T02:06:47.441Z,75.20
2023-05-14T02:09:14.131Z,75.40
2023-05-14T02:11:40.798Z,75.60
2023-05-14T02:14:07.442Z,75.40
2023-05-14T02:16:34.243Z,75.40
2023-05-14T02:19:01.011Z,76.50
2023-05-14T02:21:27.725Z,75.70
2023-05-14T02:23:54.354Z,75.90
2023-05-14T02:26:21.485Z,76.00
2023-05-14T02:28:48.156Z,76.20
2023-05-14T02:31:14.910Z,76.30
2023-05-14T02:33:41.752Z,76.50
2023-05-14T02:36:08.759Z,76.60
2023-05-14T02:38:35.440Z,76.40
2023-05-14T02:41:02.189Z,76.30
2023-05-14T02:43:28.956Z,76.40
2023-05-14T02:45:55.696Z,76.60
2023-05-14T02:48:22.365Z,76.50
2023-05-14T02:50:51.076Z,76.80
2023-05-14T02:53:18.011Z,77.10
2023-05-14T02:55:44.666Z,77.10
2023-05-14T02:58:11.336Z,77.10
2023-05-14T03:00:38.000Z,77.30
2023-05-14T03:03:05.204Z,77.70
2023-05-14T03:05:32.557Z,78.00
2023-05-14T03:07:59.224Z,77.90
2023-05-14T03:10:26.103Z,78.30
2023-05-14T03:12:53.036Z,78.30
2023-05-14T03:15:19.851Z,78.20
2023-05-14T03:17:46.537Z,78.20
2023-05-14T03:20:13.373Z,78.20
2023-05-14T03:22:40.353Z,78.50
2023-05-14T03:25:07.196Z,78.60
2023-05-14T03:27:34.529Z,78.70
2023-05-14T03:30:01.207Z,78.30
2023-05-14T03:32:27.872Z,78.70
2023-05-14T03:34:54.617Z,78.80
2023-05-14T03:37:21.226Z,79.00
2023-05-14T03:39:47.817Z,78.80
2023-05-14T03:42:14.442Z,78.90
2023-05-14T03:44:41.098Z,79.10
2023-05-14T03:47:07.813Z,79.50
2023-05-14T03:49:34.480Z,79.20
2023-05-14T03:52:01.159Z,79.10
2023-05-14T03:54:27.833Z,79.20
2023-05-14T03:56:54.416Z,79.20
2023-05-14T03:59:21.082Z,79.20
2023-05-14T04:01:47.742Z,79.50
2023-05-14T04:04:14.451Z,79.50
2023-05-14T04:06:41.374Z,79.10
2023-05-14T04:09:07.960Z,79.50
2023-05-14T04:11:34.647Z,79.80
2023-05-14T04:14:01.298Z,79.80
2023-05-14T04:16:28.003Z,80.00
2023-05-14T04:18:54.709Z,79.60
2023-05-14T04:21:21.460Z,79.70
2023-05-14T04:23:48.111Z,79.90
2023-05-14T04:26:14.750Z,79.90
2023-05-14T04:28:41.350Z,79.70
2023-05-14T04:31:07.961Z,79.60
2023-05-14T04:33:34.546Z,79.80
2023-05-14T04:36:01.952Z,80.10
2023-05-14T04:38:28.704Z,80.10
2023-05-14T04:40:55.460Z,80.00
2023-05-14T04:43:22.096Z,80.00
2023-05-14T04:45:48.722Z,80.00
2023-05-14T04:48:15.664Z,80.20
2023-05-14T04:50:42.461Z,80.00
2023-05-14T04:53:09.131Z,80.00
2023-05-14T04:55:35.753Z,79.80
2023-05-14T04:58:02.893Z,80.00
2023-05-14T05:00:30.498Z,79.90
2023-05-14T05:02:57.268Z,79.60
2023-05-14T05:05:24.143Z,79.30
2023-05-14T05:07:50.817Z,78.50
2023-05-14T05:10:17.560Z,77.50
2023-05-14T05:12:44.234Z,76.10
2023-05-14T05:15:11.096Z,76.70
2023-05-14T05:17:37.992Z,76.30
2023-05-14T05:20:08.261Z,77.30
2023-05-14T05:22:35.010Z,77.50
2023-05-14T05:25:01.718Z,77.50
2023-05-14T05:27:28.446Z,77.10
2023-05-14T05:29:55.130Z,76.70
2023-05-14T05:32:21.971Z,76.90
2023-05-14T05:34:48.655Z,77.00
2023-05-14T05:37:15.357Z,76.20
2023-05-14T05:39:41.989Z,75.80
2023-05-14T05:42:08.821Z,75.40
2023-05-14T05:44:35.505Z,74.50
2023-05-14T05:47:02.258Z,74.40
2023-05-14T05:49:29.028Z,74.20
2023-05-14T05:51:55.799Z,74.70
2023-05-14T05:54:25.037Z,75.10
2023-05-14T05:56:52.011Z,75.50
2023-05-14T05:59:18.693Z,75.60
2023-05-14T06:01:45.359Z,75.30
2023-05-14T06:04:12.052Z,75.40
2023-05-14T06:06:38.727Z,75.80
2023-05-14T06:09:06.899Z,75.90
2023-05-14T06:11:33.668Z,75.90
2023-05-14T06:14:00.324Z,75.60
2023-05-14T06:16:27.192Z,75.50
2023-05-14T06:18:55.316Z,75.60
2023-05-14T06:21:22.045Z,75.60
2023-05-14T06:23:48.720Z,76.30
2023-05-14T06:26:15.368Z,76.80
2023-05-14T06:28:41.974Z,77.10
2023-05-14T06:31:08.625Z,77.20
2023-05-14T06:33:35.390Z,75.70
2023-05-14T06:36:04.738Z,74.60
2023-05-14T06:38:31.627Z,75.30
2023-05-14T06:40:58.504Z,74.80
2023-05-14T06:43:25.611Z,75.30
2023-05-14T06:45:52.757Z,75.10
2023-05-14T06:48:20.025Z,75.70
2023-05-14T06:50:47.686Z,75.90
2023-05-14T06:53:15.225Z,75.10
2023-05-14T06:55:42.228Z,75.90
2023-05-14T06:58:09.072Z,75.90
2023-05-14T07:00:35.745Z,74.50
2023-05-14T07:03:02.517Z,74.70
2023-05-14T07:05:29.270Z,74.70
2023-05-14T07:07:55.970Z,74.40
2023-05-14T07:10:23.220Z,74.40
2023-05-14T07:12:50.514Z,74.90
2023-05-14T07:15:17.170Z,74.80
2023-05-14T07:17:43.872Z,74.50
2023-05-14T07:20:10.942Z,74.70
2023-05-14T07:22:37.580Z,74.60
2023-05-14T07:25:04.492Z,75.00
2023-05-14T07:27:31.130Z,76.10
2023-05-14T07:29:57.753Z,75.60
2023-05-14T07:32:25.370Z,76.30
2023-05-14T07:34:52.022Z,75.30
2023-05-14T07:37:18.984Z,73.80
2023-05-14T07:39:45.727Z,73.60
2023-05-14T07:42:19.352Z,73.20
2023-05-14T07:44:48.718Z,70.90
2023-05-14T07:47:15.489Z,71.10
2023-05-14T07:49:42.320Z,71.20
2023-05-14T07:52:08.973Z,70.10
2023-05-14T07:54:35.696Z,71.20
2023-05-14T07:57:02.364Z,69.70
2023-05-14T07:59:30.108Z,68.60
2023-05-14T08:01:56.834Z,68.80
2023-05-14T08:04:25.673Z,69.20
2023-05-14T08:06:52.416Z,69.10
2023-05-14T08:09:19.087Z,68.10
2023-05-14T08:11:45.833Z,67.90
2023-05-14T08:14:12.549Z,67.80
2023-05-14T08:16:39.302Z,67.60
2023-05-14T08:19:05.979Z,68.60
2023-05-14T08:21:33.054Z,68.60
2023-05-14T08:23:59.704Z,67.10
2023-05-14T08:26:26.525Z,66.00
2023-05-14T08:28:54.539Z,66.10
2023-05-14T08:31:21.329Z,64.90
2023-05-14T08:33:48.050Z,65.10
2023-05-14T08:36:14.703Z,65.30
2023-05-14T08:38:42.373Z,65.00
2023-05-14T08:41:11.600Z,65.30
2023-05-14T08:43:53.572Z,63.40
2023-05-14T08:46:23.299Z,63.00
2023-05-14T08:49:04.313Z,62.80
2023-05-14T08:51:31.570Z,63.10
2023-05-14T08:54:02.173Z,62.50
2023-05-14T08:56:32.272Z,62.60
2023-05-14T08:58:59.263Z,62.30
2023-05-14T09:01:26.034Z,63.50
2023-05-14T09:03:53.993Z,63.40
2023-05-14T09:06:21.476Z,61.40
2023-05-14T09:08:48.327Z,58.00
2023-05-14T09:11:14.920Z,61.60
2023-05-14T09:13:41.576Z,60.90
2023-05-14T09:16:08.259Z,61.10
2023-05-14T09:18:36.539Z,60.30
2023-05-14T09:21:03.368Z,59.50
2023-05-14T09:23:34.309Z,61.30
2023-05-14T09:26:05.533Z,60.50
2023-05-14T09:28:32.334Z,60.10
2023-05-14T09:30:58.972Z,59.80
2023-05-14T09:33:27.370Z,59.40
2023-05-14T09:36:00.865Z,60.70
2023-05-14T09:38:31.967Z,60.60
2023-05-14T09:40:59.937Z,58.40
2023-05-14T09:43:26.810Z,57.30
2023-05-14T09:45:53.413Z,58.30
2023-05-14T09:48:20.352Z,57.00
2023-05-14T09:50:47.276Z,57.90
2023-05-14T09:53:14.254Z,59.60
2023-05-14T09:55:41.745Z,58.60
2023-05-14T09:58:08.494Z,56.80
2023-05-14T10:00:36.076Z,56.60
2023-05-14T10:03:07.983Z,59.00
2023-05-14T10:05:39.893Z,58.90
2023-05-14T10:08:16.263Z,57.70
2023-05-14T10:10:43.136Z,57.00
2023-05-14T10:13:22.151Z,56.40
2023-05-14T10:15:57.573Z,57.30
2023-05-14T10:18:27.894Z,59.00
2023-05-14T10:21:06.149Z,58.30
2023-05-14T10:23:34.327Z,55.30
2023-05-14T10:26:01.769Z,57.20
2023-05-14T10:28:28.707Z,57.70
2023-05-14T10:30:55.488Z,56.70
2023-05-14T10:33:22.145Z,57.10
2023-05-14T10:36:02.160Z,55.40
2023-05-14T10:38:30.323Z,54.90
2023-05-14T10:41:01.082Z,56.10
2023-05-14T10:43:31.296Z,56.30
2023-05-14T10:45:59.715Z,55.20
2023-05-14T10:48:26.862Z,55.50
2023-05-14T10:50:54.094Z,55.40
2023-05-14T10:53:22.250Z,55.60
2023-05-14T10:55:48.920Z,55.90
2023-05-14T10:58:16.163Z,55.70
2023-05-14T11:00:42.936Z,57.80
2023-05-14T11:03:10.583Z,56.90
2023-05-14T11:05:39.901Z,57.00
2023-05-14T11:08:08.537Z,56.70
2023-05-14T11:10:35.708Z,55.80
2023-05-14T11:13:02.566Z,55.30
2023-05-14T11:15:29.323Z,55.00
2023-05-14T11:17:56.089Z,55.00
2023-05-14T11:20:23.038Z,53.90
2023-05-14T11:22:51.595Z,54.50
2023-05-14T11:25:18.927Z,55.00
2023-05-14T11:27:47.104Z,54.80
2023-05-14T11:30:18.214Z,54.70
2023-05-14T11:32:47.239Z,52.10
2023-05-14T11:35:15.263Z,52.80
2023-05-14T11:37:42.861Z,52.30
2023-05-14T11:40:16.727Z,53.00
2023-05-14T11:42:43.625Z,53.40
2023-05-14T11:45:14.378Z,53.10
2023-05-14T11:47:42.699Z,52.90
2023-05-14T11:50:10.055Z,52.90
2023-05-14T11:52:41.266Z,51.80
2023-05-14T11:55:12.601Z,51.90
2023-05-14T11:57:40.826Z,51.70
2023-05-14T12:00:09.245Z,51.70
2023-05-14T12:02:37.203Z,52.20
2023-05-14T12:05:07.161Z,52.00
2023-05-14T12:07:33.778Z,52.50
2023-05-14T12:10:03.255Z,53.10
2023-05-14T12:12:35.937Z,53.40
2023-05-14T12:15:10.020Z,52.80
2023-05-14T12:17:38.422Z,52.50
2023-05-14T12:20:08.189Z,51.90
2023-05-14T12:22:36.948Z,52.00
2023-05-14T12:25:04.025Z,49.80
2023-05-14T12:27:30.995Z,51.30
2023-05-14T12:32:37.917Z,50.60
2023-05-14T12:35:05.013Z,50.80
2023-05-14T12:37:31.740Z,51.00
2023-05-14T12:39:58.320Z,50.50
2023-05-14T12:42:24.985Z,50.60
2023-05-14T12:44:51.581Z,50.90
2023-05-14T12:47:19.902Z,51.00
2023-05-14T12:49:46.586Z,51.00
2023-05-14T12:54:43.439Z,51.70
2023-05-14T12:57:10.326Z,50.60
2023-05-14T12:59:37.069Z,50.30
2023-05-14T13:02:03.787Z,50.00
2023-05-14T13:04:30.470Z,51.20
2023-05-14T13:06:57.208Z,50.70
2023-05-14T13:09:23.878Z,50.70
2023-05-14T13:11:50.507Z,50.90
2023-05-14T13:14:18.297Z,49.60
2023-05-14T13:16:46.308Z,49.40
2023-05-14T13:19:13.123Z,48.80
2023-05-14T13:21:39.859Z,49.30
2023-05-14T13:24:06.740Z,49.10
2023-05-14T13:26:33.387Z,49.00
2023-05-14T13:28:59.971Z,48.90
2023-05-14T13:31:26.666Z,48.80
2023-05-14T13:33:53.596Z,48.00
2023-05-14T13:36:20.761Z,48.70
2023-05-14T13:38:47.571Z,49.10
2023-05-14T13:41:14.277Z,48.60
2023-05-14T13:43:40.944Z,48.30
2023-05-14T13:46:07.846Z,48.40
2023-05-14T13:48:35.642Z,48.30
2023-05-14T13:51:02.292Z,47.90
2023-05-14T13:53:29.165Z,47.80
2023-05-14T13:56:01.120Z,48.00
2023-05-14T13:58:28.303Z,48.60
2023-05-14T14:00:55.023Z,49.50
2023-05-14T14:03:21.803Z,48.10
2023-05-14T14:05:48.489Z,48.50
2023-05-14T14:08:23.331Z,47.50
2023-05-14T14:10:51.617Z,48.00
2023-05-14T14:13:18.304Z,47.90
2023-05-14T14:15:45.071Z,47.00
2023-05-14T14:18:11.767Z,46.70
2023-05-14T14:20:38.518Z,46.70
2023-05-14T14:23:05.226Z,46.70
2023-05-14T14:25:31.926Z,46.60
2023-05-14T14:27:58.616Z,46.30
2023-05-14T14:30:25.344Z,46.50
2023-05-14T14:32:52.283Z,46.40
2023-05-14T14:35:19.921Z,46.50
2023-05-14T14:37:52.148Z,46.80
2023-05-14T14:40:18.916Z,46.90
2023-05-14T14:42:45.902Z,46.70
2023-05-14T14:45:12.755Z,47.30
2023-05-14T14:47:44.960Z,46.80
2023-05-14T14:50:12.611Z,46.80
2023-05-14T14:52:45.518Z,46.30
2023-05-14T14:55:12.813Z,46.00
2023-05-14T14:57:39.678Z,46.00
2023-05-14T15:00:07.165Z,45.00
2023-05-14T15:02:34.193Z,44.80
2023-05-14T15:05:01.123Z,45.10
2023-05-14T15:07:27.941Z,45.20
2023-05-14T15:09:54.577Z,45.00
2023-05-14T15:12:21.241Z,44.70
2023-05-14T15:14:47.909Z,45.10
2023-05-14T15:17:14.583Z,46.00
2023-05-14T15:19:41.184Z,44.90
2023-05-14T15:22:07.945Z,45.40
2023-05-14T15:24:34.532Z,46.10
2023-05-14T15:27:01.252Z,45.60
2023-05-14T15:29:28.639Z,45.10
2023-05-14T15:31:55.401Z,46.70
2023-05-14T15:34:22.136Z,46.00
2023-05-14T15:36:48.851Z,46.50
2023-05-14T15:39:15.518Z,46.20
2023-05-14T15:41:42.237Z,46.60
2023-05-14T15:44:09.056Z,46.70
2023-05-14T15:46:37.804Z,46.20
2023-05-14T15:49:04.583Z,46.20
2023-05-14T15:51:31.789Z,45.70
2023-05-14T15:53:58.555Z,46.00
2023-05-14T15:56:25.550Z,45.00
2023-05-14T15:58:52.257Z,44.40
2023-05-14T16:01:19.237Z,43.40
2023-05-14T16:03:46.246Z,44.20
2023-05-14T16:06:12.984Z,43.00
2023-05-14T16:08:39.630Z,43.80
2023-05-14T16:11:07.490Z,43.80
2023-05-14T16:13:35.697Z,44.20
2023-05-14T16:16:02.498Z,45.00
2023-05-14T16:18:29.637Z,44.60
2023-05-14T16:20:56.439Z,44.60
2023-05-14T16:23:23.197Z,45.10
2023-05-14T16:25:50.100Z,44.60
2023-05-14T16:28:16.974Z,45.20
2023-05-14T16:30:43.656Z,45.80
2023-05-14T16:33:10.484Z,46.20
2023-05-14T16:35:37.324Z,46.90
2023-05-14T16:38:04.122Z,47.60
2023-05-14T16:40:30.839Z,51.20
2023-05-14T16:42:58.064Z,51.00
2023-05-14T16:45:25.129Z,51.50
2023-05-14T16:47:52.030Z,53.00
2023-05-14T16:50:18.783Z,54.90
2023-05-14T16:52:45.454Z,56.30
2023-05-14T16:55:12.234Z,56.50
2023-05-14T16:57:38.844Z,56.50
2023-05-14T17:00:06.519Z,57.00
2023-05-14T17:02:33.638Z,58.10
2023-05-14T17:05:00.581Z,59.30
2023-05-14T17:07:27.335Z,59.30
2023-05-14T17:09:54.154Z,59.60
2023-05-14T17:12:20.883Z,59.70
2023-05-14T17:14:47.542Z,59.50
2023-05-14T17:17:14.198Z,59.60
2023-05-14T17:19:41.138Z,60.00
2023-05-14T17:22:08.182Z,59.60
2023-05-14T17:24:36.294Z,60.40
2023-05-14T17:27:03.127Z,60.40
2023-05-14T17:29:29.778Z,60.90
2023-05-14T17:31:56.514Z,60.90
2023-05-14T17:34:23.331Z,61.20
2023-05-14T17:36:50.294Z,61.00
2023-05-14T17:39:16.901Z,61.70
2023-05-14T17:41:43.749Z,62.30
2023-05-14T17:44:12.681Z,62.20
2023-05-14T17:46:39.980Z,62.30
2023-05-14T17:49:06.591Z,62.40
2023-05-14T17:51:33.257Z,62.70
2023-05-14T17:53:59.928Z,62.80
2023-05-14T17:56:26.627Z,63.10
2023-05-14T17:58:53.288Z,63.70
2023-05-14T18:01:20.148Z,63.60
2023-05-14T18:03:47.463Z,63.20
2023-05-14T18:06:14.953Z,63.70
2023-05-14T18:08:41.744Z,63.50
2023-05-14T18:11:08.459Z,63.90
2023-05-14T18:13:35.327Z,63.90
2023-05-14T18:16:02.107Z,64.00
2023-05-14T18:18:28.856Z,65.10
2023-05-14T18:20:55.806Z,64.90
2023-05-14T18:23:22.504Z,64.60
2023-05-14T18:25:49.302Z,64.60
2023-05-14T18:28:16.248Z,64.30
2023-05-14T18:30:43.520Z,64.50
2023-05-14T18:33:10.514Z,64.90
2023-05-14T18:35:37.316Z,65.20
2023-05-14T18:38:04.134Z,65.10
2023-05-14T18:40:30.871Z,65.20
2023-05-14T18:42:58.001Z,65.10
2023-05-14T18:45:25.012Z,65.30
2023-05-14T18:47:52.047Z,65.50
2023-05-14T18:50:18.992Z,65.70
2023-05-14T18:52:45.665Z,65.60
2023-05-14T18:55:12.355Z,65.60
2023-05-14T18:57:39.151Z,65.40
2023-05-14T19:00:06.961Z,65.50
2023-05-14T19:02:33.645Z,65.60
2023-05-14T19:05:00.528Z,65.70
2023-05-14T19:07:27.701Z,65.80
2023-05-14T19:09:54.442Z,65.70
2023-05-14T19:12:21.035Z,65.60
2023-05-14T19:14:47.625Z,66.00
2023-05-14T19:17:14.298Z,65.90
2023-05-14T19:19:41.072Z,66.10
2023-05-14T19:22:07.690Z,66.20
2023-05-14T19:24:34.469Z,66.30
2023-05-14T19:27:01.192Z,66.60
2023-05-14T19:29:27.873Z,66.50
2023-05-14T19:31:54.555Z,66.50
2023-05-14T19:34:21.578Z,66.60
2023-05-14T19:36:48.303Z,66.60
2023-05-14T19:39:14.963Z,66.60
2023-05-14T19:41:41.755Z,66.70
2023-05-14T19:44:08.396Z,66.70
2023-05-14T19:46:35.128Z,66.70
2023-05-14T19:49:01.792Z,67.00
2023-05-14T19:51:28.667Z,67.20
2023-05-14T19:53:55.335Z,67.00
2023-05-14T19:56:22.585Z,67.10
2023-05-14T19:58:49.811Z,67.40
2023-05-14T20:01:16.501Z,67.10
2023-05-14T20:03:43.332Z,67.30
2023-05-14T20:06:10.122Z,67.50
2023-05-14T20:08:36.793Z,67.60
2023-05-14T20:11:03.515Z,67.70
2023-05-14T20:13:33.109Z,67.90
2023-05-14T20:16:00.185Z,68.00
2023-05-14T20:18:27.039Z,68.10
2023-05-14T20:20:54.767Z,68.50
2023-05-14T20:23:21.443Z,68.40
2023-05-14T20:25:48.150Z,68.60
2023-05-14T20:28:14.781Z,68.70
2023-05-14T20:30:41.405Z,68.60
2023-05-14T20:33:08.287Z,68.70
2023-05-14T20:35:34.944Z,68.90
2023-05-14T20:38:03.414Z,69.00
2023-05-14T20:40:30.165Z,69.20
2023-05-14T20:42:56.912Z,70.00
2023-05-14T20:45:23.907Z,69.40
2023-05-14T20:47:50.879Z,69.70
2023-05-14T20:50:17.648Z,69.50
2023-05-14T20:52:44.372Z,69.80
2023-05-14T20:55:11.043Z,70.00
2023-05-14T20:57:37.713Z,70.00
2023-05-14T21:00:08.028Z,69.80
2023-05-14T21:02:35.364Z,69.90
2023-05-14T21:05:02.298Z,70.00
2023-05-14T21:07:31.663Z,70.40
2023-05-14T21:09:58.562Z,70.40
2023-05-14T21:12:25.322Z,71.50
2023-05-14T21:14:51.948Z,70.30
2023-05-14T21:17:18.668Z,70.30
2023-05-14T21:19:45.362Z,70.80
2023-05-14T21:22:12.664Z,72.00
2023-05-14T21:24:39.322Z,70.60
2023-05-14T21:27:06.055Z,70.80
2023-05-14T21:29:32.732Z,70.90
2023-05-14T21:31:59.365Z,71.00
2023-05-14T21:34:26.045Z,71.10
2023-05-14T21:36:52.844Z,71.60
2023-05-14T21:39:19.953Z,71.60
2023-05-14T21:41:46.550Z,71.40
2023-05-14T21:44:13.211Z,71.50
2023-05-14T21:46:39.970Z,71.90
2023-05-14T21:49:07.040Z,72.00
2023-05-14T21:51:33.701Z,72.30
2023-05-14T21:54:00.433Z,72.50
2023-05-14T21:56:27.439Z,72.60
2023-05-14T21:58:56.023Z,72.70
2023-05-14T22:01:22.818Z,72.70
2023-05-14T22:03:49.664Z,72.70
2023-05-14T22:06:16.421Z,72.80
2023-05-14T22:08:43.010Z,73.20
2023-05-14T22:11:09.657Z,73.30
2023-05-14T22:13:40.839Z,73.40
2023-05-14T22:16:12.868Z,73.50
2023-05-14T22:18:40.642Z,73.60
2023-05-14T22:21:07.299Z,73.50
2023-05-14T22:23:34.206Z,73.60
2023-05-14T22:26:00.812Z,73.90
2023-05-14T22:28:27.476Z,74.00
2023-05-14T22:30:54.329Z,74.30
2023-05-14T22:33:21.033Z,74.40
2023-05-14T22:35:47.995Z,74.50
2023-05-14T22:38:14.707Z,74.80
2023-05-14T22:40:41.372Z,74.70
2023-05-14T22:43:08.045Z,74.80
2023-05-14T22:45:34.686Z,75.00
2023-05-14T22:48:02.152Z,75.20
2023-05-14T22:50:28.857Z,75.30
2023-05-14T22:52:55.528Z,75.30
2023-05-14T22:55:22.304Z,75.60
2023-05-14T22:57:49.039Z,75.80
2023-05-14T23:00:16.234Z,75.70
2023-05-14T23:02:42.937Z,75.80
2023-05-14T23:05:09.840Z,75.90
2023-05-14T23:07:36.542Z,75.90
2023-05-14T23:10:03.353Z,75.80
2023-05-14T23:12:30.027Z,75.90
2023-05-14T23:14:58.675Z,76.30
2023-05-14T23:17:25.859Z,76.60
2023-05-14T23:19:52.874Z,76.50
2023-05-14T23:22:19.657Z,76.70
2023-05-14T23:24:46.317Z,76.70
2023-05-14T23:27:13.069Z,76.50
2023-05-14T23:29:39.721Z,76.50
2023-05-14T23:32:06.937Z,76.60
2023-05-14T23:34:34.647Z,77.00
2023-05-14T23:37:01.469Z,77.70
2023-05-14T23:39:28.464Z,77.70
2023-05-14T23:41:55.215Z,77.30
2023-05-14T23:44:22.009Z,77.30
2023-05-14T23:46:48.815Z,77.50
2023-05-14T23:49:15.588Z,77.50
2023-05-14T23:51:42.266Z,77.40
2023-05-14T23:54:08.970Z,77.50
2023-05-14T23:56:35.752Z,77.60
2023-05-14T23:59:03.501Z,77.80
